Time;durP1;ratioP1;P1;durP2;ratioP2;P2;SDS_P1;SDS_P2;PMS_P1;PMS_P2;Temp;Humidity;BMP_temperature;BMP_pressure;BME280_temperature;BME280_humidity;BME280_pressure;Samples;Min_cycle;Max_cycle;Signal;HPM_P1;HPM_P2
2021/08/22 00:02:00;;;;;;;9.83;7.53;;;19.00;99.90;;;;;;5020380;28;20199;-51
2021/08/22 00:04:28;;;;;;;7.97;6.90;;;18.90;99.90;;;;;;5014928;28;20208;-51
2021/08/22 00:06:54;;;;;;;10.27;7.10;;;19.10;99.90;;;;;;5020912;28;20311;-51
2021/08/22 00:09:22;;;;;;;9.63;7.47;;;19.10;99.90;;;;;;4993464;28;20207;-51
2021/08/22 00:11:49;;;;;;;8.87;7.03;;;19.20;99.90;;;;;;5022733;28;20235;-51
2021/08/22 00:14:15;;;;;;;8.63;6.77;;;19.20;99.90;;;;;;5021294;28;20732;-51
2021/08/22 00:16:42;;;;;;;9.67;7.07;;;19.00;99.90;;;;;;5019534;28;20691;-51
2021/08/22 00:19:09;;;;;;;9.17;7.60;;;19.00;99.90;;;;;;5015334;28;20215;-51
2021/08/22 00:21:36;;;;;;;8.90;7.17;;;19.00;99.90;;;;;;5017852;28;20301;-51
2021/08/22 00:24:03;;;;;;;9.43;7.30;;;19.00;99.90;;;;;;5018671;28;20211;-51
2021/08/22 00:26:30;;;;;;;11.03;8.17;;;18.90;99.90;;;;;;5019309;28;20205;-50
2021/08/22 00:28:57;;;;;;;9.47;7.50;;;18.80;99.90;;;;;;5016665;28;20301;-51
2021/08/22 00:31:23;;;;;;;9.93;7.27;;;18.80;99.90;;;;;;5018804;28;20310;-50
2021/08/22 00:33:50;;;;;;;8.53;7.63;;;18.80;99.90;;;;;;5012052;28;20310;-50
2021/08/22 00:36:17;;;;;;;9.50;7.60;;;18.70;99.90;;;;;;5019098;28;20215;-50
2021/08/22 00:38:47;;;;;;;13.23;7.63;;;18.70;99.90;;;;;;5002188;28;20196;-51
2021/08/22 00:41:14;;;;;;;11.77;8.47;;;18.80;99.90;;;;;;5020880;28;20222;-51
2021/08/22 00:43:44;;;;;;;9.40;8.20;;;18.70;99.90;;;;;;5016587;28;20765;-51
2021/08/22 00:46:11;;;;;;;10.87;7.73;;;18.70;99.90;;;;;;5020858;28;20292;-50
2021/08/22 00:48:40;;;;;;;9.87;7.90;;;18.60;99.90;;;;;;5017650;28;20228;-51
2021/08/22 00:51:07;;;;;;;11.83;8.40;;;18.60;99.90;;;;;;5017741;28;20232;-51
2021/08/22 00:53:38;;;;;;;9.60;7.47;;;18.50;99.90;;;;;;5020415;28;20235;-51
2021/08/22 00:56:05;;;;;;;7.47;6.17;;;18.50;99.90;;;;;;5024383;28;20225;-50
2021/08/22 00:58:32;;;;;;;11.00;7.70;;;18.50;99.90;;;;;;5012116;28;20360;-51
2021/08/22 01:01:00;;;;;;;10.03;6.77;;;18.40;99.90;;;;;;5021507;28;20208;-51
2021/08/22 01:03:42;;;;;;;7.63;6.07;;;18.50;99.90;;;;;;5019128;28;20567;-51
2021/08/22 01:06:27;;;;;;;7.17;6.40;;;18.50;99.90;;;;;;5021536;28;20646;-50
2021/08/22 01:09:27;;;;;;;11.63;7.20;;;18.50;99.90;;;;;;5019683;28;20524;-50
2021/08/22 01:11:58;;;;;;;9.43;6.47;;;18.50;99.90;;;;;;5022819;28;20652;-50
2021/08/22 01:14:29;;;;;;;6.33;5.37;;;18.50;99.90;;;;;;5017323;28;20285;-51
2021/08/22 01:16:58;;;;;;;7.73;5.90;;;18.60;99.90;;;;;;5020955;28;20996;-50
2021/08/22 01:19:33;;;;;;;8.80;6.30;;;18.50;99.90;;;;;;5018450;28;20279;-51
2021/08/22 01:22:06;;;;;;;8.43;5.97;;;18.40;99.90;;;;;;5007313;28;20200;-50
2021/08/22 01:24:36;;;;;;;7.63;6.50;;;18.50;99.90;;;;;;5014124;28;20306;-50
2021/08/22 01:27:05;;;;;;;7.40;6.00;;;18.40;99.90;;;;;;5019195;28;20243;-50
2021/08/22 01:29:42;;;;;;;7.43;6.00;;;18.50;99.90;;;;;;5019301;28;20293;-50
2021/08/22 01:32:10;;;;;;;8.37;6.27;;;18.50;99.90;;;;;;5024366;28;20827;-50
2021/08/22 01:34:37;;;;;;;12.80;6.43;;;18.50;99.90;;;;;;5016310;28;20229;-50
2021/08/22 01:37:04;;;;;;;9.23;6.60;;;18.40;99.90;;;;;;5019661;28;20300;-51
2021/08/22 01:39:32;;;;;;;9.20;7.00;;;18.50;99.90;;;;;;5023720;28;20303;-51
2021/08/22 01:41:59;;;;;;;10.07;7.03;;;18.40;99.90;;;;;;5017422;28;20286;-51
2021/08/22 01:44:26;;;;;;;8.87;7.63;;;18.30;99.90;;;;;;4999709;28;20298;-51
2021/08/22 01:46:53;;;;;;;10.57;8.70;;;18.20;99.90;;;;;;5021713;28;20309;-51
2021/08/22 01:49:21;;;;;;;12.07;8.07;;;18.30;99.90;;;;;;5020994;28;20255;-50
2021/08/22 01:51:48;;;;;;;11.03;9.17;;;18.40;99.90;;;;;;5017310;28;20277;-50
2021/08/22 01:54:15;;;;;;;13.67;9.60;;;18.30;99.90;;;;;;5023637;28;20577;-50
2021/08/22 01:56:42;;;;;;;14.17;10.43;;;18.30;99.90;;;;;;5021583;28;20302;-51
2021/08/22 01:59:09;;;;;;;15.70;12.23;;;18.30;99.90;;;;;;5002584;28;20693;-50
2021/08/22 02:01:37;;;;;;;21.17;11.67;;;18.30;99.90;;;;;;5019713;28;20666;-51
2021/08/22 02:04:23;;;;;;;17.90;12.93;;;18.10;99.90;;;;;;4995355;28;20378;-51
2021/08/22 02:07:00;;;;;;;19.53;14.03;;;18.10;99.90;;;;;;4996372;28;20255;-51
2021/08/22 02:09:48;;;;;;;17.40;13.80;;;18.20;99.90;;;;;;5016034;28;20626;-51
2021/08/22 02:12:18;;;;;;;19.80;14.53;;;18.20;99.90;;;;;;5022822;28;20294;-50
2021/08/22 02:14:58;;;;;;;18.93;15.13;;;18.30;99.90;;;;;;5016961;28;20302;-51
2021/08/22 02:18:06;;;;;;;19.70;14.33;;;18.30;99.90;;;;;;5017155;28;20204;-50
2021/08/22 02:20:35;;;;;;;22.67;15.20;;;18.30;99.90;;;;;;4998201;28;20658;-50
2021/08/22 02:23:03;;;;;;;21.47;15.83;;;18.10;99.90;;;;;;5014568;28;20723;-50
2021/08/22 02:25:31;;;;;;;20.67;15.13;;;18.20;99.90;;;;;;5019568;28;20212;-50
2021/08/22 02:27:59;;;;;;;20.27;16.73;;;18.10;99.90;;;;;;5014518;28;20338;-50
2021/08/22 02:30:27;;;;;;;25.67;17.10;;;18.10;99.90;;;;;;5017781;28;20292;-50
2021/08/22 02:32:54;;;;;;;20.40;16.13;;;18.10;99.90;;;;;;5017603;28;20326;-50
2021/08/22 02:35:22;;;;;;;24.47;16.40;;;18.10;99.90;;;;;;5020446;28;20223;-50
2021/08/22 02:37:49;;;;;;;21.93;15.97;;;18.10;99.90;;;;;;5015818;28;20557;-50
2021/08/22 02:40:15;;;;;;;21.27;15.90;;;18.10;99.90;;;;;;5018823;28;20614;-50
2021/08/22 02:42:42;;;;;;;23.70;17.00;;;18.10;99.90;;;;;;5019127;28;20277;-51
2021/08/22 02:45:09;;;;;;;23.47;17.00;;;18.10;99.90;;;;;;5019967;28;20204;-51
2021/08/22 02:47:36;;;;;;;24.63;17.57;;;18.10;99.90;;;;;;5014551;28;20552;-50
2021/08/22 02:50:04;;;;;;;26.77;17.80;;;18.20;99.90;;;;;;5014858;28;20743;-50
2021/08/22 02:52:30;;;;;;;25.40;18.07;;;18.10;99.90;;;;;;5016005;28;20286;-50
2021/08/22 02:54:57;;;;;;;28.17;18.73;;;18.20;99.90;;;;;;5018330;28;20221;-51
2021/08/22 02:57:24;;;;;;;27.23;18.17;;;18.20;99.90;;;;;;5021046;28;20200;-51
2021/08/22 02:59:51;;;;;;;31.90;19.07;;;18.10;99.90;;;;;;5025816;28;20642;-51
2021/08/22 03:02:18;;;;;;;29.60;18.53;;;18.10;99.90;;;;;;5019416;28;20199;-50
2021/08/22 03:04:45;;;;;;;28.17;18.43;;;18.10;99.90;;;;;;5017074;28;20307;-50
2021/08/22 03:07:12;;;;;;;27.93;18.37;;;18.10;99.90;;;;;;5010029;28;20203;-51
2021/08/22 03:09:39;;;;;;;30.27;18.67;;;18.20;99.90;;;;;;5021354;28;20236;-51
2021/08/22 03:12:06;;;;;;;27.63;19.27;;;18.30;99.90;;;;;;5018929;28;20627;-51
2021/08/22 03:14:33;;;;;;;32.73;19.93;;;18.20;99.90;;;;;;5019200;28;20234;-50
2021/08/22 03:16:59;;;;;;;28.40;19.23;;;18.10;99.90;;;;;;5020550;28;20208;-51
2021/08/22 03:19:26;;;;;;;32.53;19.67;;;18.10;99.90;;;;;;5015935;28;20641;-51
2021/08/22 03:21:53;;;;;;;33.67;20.60;;;18.00;99.90;;;;;;5018024;28;20866;-50
2021/08/22 03:24:20;;;;;;;34.43;19.47;;;18.00;99.90;;;;;;5019419;28;20293;-51
2021/08/22 03:26:47;;;;;;;33.83;19.87;;;18.00;99.90;;;;;;5022458;28;20764;-51
2021/08/22 03:29:13;;;;;;;37.63;20.63;;;18.10;99.90;;;;;;5017534;28;20267;-51
2021/08/22 03:31:40;;;;;;;33.20;19.73;;;18.10;99.90;;;;;;5017869;28;20366;-50
2021/08/22 03:34:07;;;;;;;31.97;19.87;;;18.10;99.90;;;;;;5017166;28;20227;-50
2021/08/22 03:36:36;;;;;;;34.80;20.57;;;18.10;99.90;;;;;;5022789;28;20672;-51
2021/08/22 03:39:05;;;;;;;37.03;21.77;;;18.20;99.90;;;;;;5004264;28;20658;-51
2021/08/22 03:41:33;;;;;;;32.13;19.80;;;18.10;99.90;;;;;;5017437;28;20207;-51
2021/08/22 03:44:00;;;;;;;32.53;19.73;;;18.10;99.90;;;;;;5018393;28;20291;-51
2021/08/22 03:46:27;;;;;;;30.80;19.03;;;18.10;99.90;;;;;;5018808;28;20288;-50
2021/08/22 03:48:54;;;;;;;33.20;19.57;;;18.10;99.90;;;;;;4998775;28;20314;-51
2021/08/22 03:51:23;;;;;;;35.20;20.53;;;18.00;99.90;;;;;;5001503;28;20298;-50
2021/08/22 03:53:50;;;;;;;37.70;21.90;;;18.10;99.90;;;;;;5001159;28;20245;-50
2021/08/22 03:56:17;;;;;;;34.50;19.70;;;18.10;99.90;;;;;;5021171;28;20697;-50
2021/08/22 03:58:44;;;;;;;34.77;19.80;;;18.10;99.90;;;;;;5019648;28;20299;-50
2021/08/22 04:01:10;;;;;;;33.53;19.10;;;18.00;99.90;;;;;;5018538;28;20335;-50
2021/08/22 04:03:39;;;;;;;36.83;19.03;;;18.10;99.90;;;;;;5018035;28;20188;-50
2021/08/22 04:06:07;;;;;;;34.90;19.03;;;18.20;99.90;;;;;;5017867;28;20246;-50
2021/08/22 04:08:39;;;;;;;32.37;19.10;;;18.20;99.90;;;;;;5020005;28;20285;-50
2021/08/22 04:11:08;;;;;;;38.17;22.03;;;18.10;99.90;;;;;;4999293;28;20353;-51
2021/08/22 04:13:35;;;;;;;34.90;20.50;;;18.00;99.90;;;;;;5020015;28;20280;-51
2021/08/22 04:16:02;;;;;;;38.83;21.57;;;18.00;99.90;;;;;;5019848;28;20317;-50
2021/08/22 04:18:29;;;;;;;37.83;20.37;;;18.10;99.90;;;;;;5021109;28;20787;-51
2021/08/22 04:20:56;;;;;;;39.43;21.13;;;18.00;99.90;;;;;;5019524;28;20202;-51
2021/08/22 04:23:23;;;;;;;33.37;20.43;;;17.90;99.90;;;;;;5001402;28;20282;-51
2021/08/22 04:25:51;;;;;;;37.60;19.17;;;17.80;99.90;;;;;;5018956;28;20308;-51
2021/08/22 04:28:18;;;;;;;40.67;20.87;;;17.80;99.90;;;;;;5018204;28;20745;-51
2021/08/22 04:30:45;;;;;;;35.47;20.27;;;17.80;99.90;;;;;;5016595;28;20299;-50
2021/08/22 04:33:12;;;;;;;38.53;21.00;;;17.80;99.90;;;;;;5018408;28;20204;-50
2021/08/22 04:35:39;;;;;;;42.03;21.30;;;17.80;99.90;;;;;;5019900;28;20297;-51
2021/08/22 04:38:06;;;;;;;34.23;19.80;;;17.80;99.90;;;;;;5020091;28;20278;-50
2021/08/22 04:40:32;;;;;;;33.63;18.70;;;17.80;99.90;;;;;;5020014;28;20232;-51
2021/08/22 04:42:59;;;;;;;38.20;20.67;;;17.70;99.90;;;;;;5016737;28;20510;-50
2021/08/22 04:45:26;;;;;;;38.57;20.33;;;17.70;99.90;;;;;;5017051;28;20294;-51
2021/08/22 04:47:53;;;;;;;34.13;20.27;;;17.70;99.90;;;;;;5022169;28;20204;-51
2021/08/22 04:50:20;;;;;;;36.77;20.73;;;17.80;99.90;;;;;;5020329;28;20655;-50
2021/08/22 04:52:47;;;;;;;31.47;19.70;;;17.80;99.90;;;;;;5020793;28;20248;-50
2021/08/22 04:55:14;;;;;;;31.93;19.27;;;17.80;99.90;;;;;;5022804;28;20210;-51
2021/08/22 04:57:41;;;;;;;32.43;20.43;;;17.80;99.90;;;;;;5020004;28;20240;-51
2021/08/22 05:00:08;;;;;;;36.20;20.80;;;17.80;99.90;;;;;;4995335;28;20929;-51
2021/08/22 05:02:35;;;;;;;35.13;19.73;;;17.80;99.90;;;;;;5017252;28;20219;-51
2021/08/22 05:05:02;;;;;;;33.63;20.67;;;17.70;99.90;;;;;;5014861;28;20214;-50
2021/08/22 05:07:29;;;;;;;33.83;19.63;;;17.70;99.90;;;;;;5018246;28;20723;-51
2021/08/22 05:09:56;;;;;;;38.03;21.57;;;17.80;99.90;;;;;;5016012;28;20222;-50
2021/08/22 05:12:23;;;;;;;37.33;20.00;;;17.80;99.90;;;;;;5015433;28;20231;-50
2021/08/22 05:14:49;;;;;;;33.30;20.37;;;17.70;99.90;;;;;;5018092;28;20221;-50
2021/08/22 05:17:16;;;;;;;35.30;21.47;;;17.80;99.90;;;;;;5016225;28;20707;-50
2021/08/22 05:19:43;;;;;;;36.30;22.20;;;17.80;99.90;;;;;;5017622;28;20390;-50
2021/08/22 05:22:10;;;;;;;35.93;20.73;;;17.70;99.90;;;;;;5010808;28;20226;-50
2021/08/22 05:24:36;;;;;;;33.80;19.53;;;17.80;99.90;;;;;;5015337;28;20326;-50
2021/08/22 05:27:03;;;;;;;32.33;20.60;;;17.70;99.90;;;;;;5020321;28;20930;-49
2021/08/22 05:29:30;;;;;;;32.23;18.40;;;17.60;99.90;;;;;;5000567;28;20232;-50
2021/08/22 05:31:57;;;;;;;30.70;19.50;;;17.70;99.90;;;;;;5015469;28;20748;-51
2021/08/22 05:34:24;;;;;;;27.03;18.43;;;17.60;99.90;;;;;;5017099;28;20194;-50
2021/08/22 05:36:51;;;;;;;32.43;18.27;;;17.50;99.90;;;;;;5019604;28;20226;-51
2021/08/22 05:39:19;;;;;;;29.83;17.37;;;17.60;99.90;;;;;;5014551;28;20292;-50
2021/08/22 05:41:46;;;;;;;27.83;17.40;;;17.60;99.90;;;;;;5019365;28;20290;-51
2021/08/22 05:44:13;;;;;;;29.00;16.60;;;17.60;99.90;;;;;;5017661;28;20217;-50
2021/08/22 05:46:39;;;;;;;30.13;15.83;;;17.60;99.90;;;;;;5017779;28;20623;-50
2021/08/22 05:49:06;;;;;;;24.83;15.60;;;17.70;99.90;;;;;;5018061;28;20202;-51
2021/08/22 05:51:33;;;;;;;24.60;15.50;;;17.60;99.90;;;;;;5018543;28;20216;-50
2021/08/22 05:54:00;;;;;;;23.43;15.63;;;17.60;99.90;;;;;;5017362;28;20281;-51
2021/08/22 05:56:27;;;;;;;27.20;16.03;;;17.60;99.90;;;;;;5017185;28;20219;-51
2021/08/22 05:58:54;;;;;;;28.20;16.57;;;17.80;99.90;;;;;;5018685;28;20327;-50
2021/08/22 06:01:20;;;;;;;26.27;16.20;;;17.80;99.90;;;;;;5016386;28;20611;-50
2021/08/22 06:03:48;;;;;;;28.17;15.73;;;17.80;99.90;;;;;;5018623;28;20329;-51
2021/08/22 06:06:14;;;;;;;28.80;17.27;;;17.90;99.90;;;;;;5015914;28;20215;-51
2021/08/22 06:08:41;;;;;;;28.97;16.47;;;17.90;99.90;;;;;;5021105;28;20288;-51
2021/08/22 06:11:08;;;;;;;25.97;15.57;;;17.80;99.90;;;;;;4999718;28;20282;-50
2021/08/22 06:13:35;;;;;;;25.60;17.00;;;17.90;99.90;;;;;;5016650;28;20205;-49
2021/08/22 06:16:02;;;;;;;26.83;16.60;;;17.80;99.90;;;;;;5019088;28;20930;-50
2021/08/22 06:18:29;;;;;;;26.37;17.00;;;17.70;99.90;;;;;;5018230;28;20291;-50
2021/08/22 06:20:56;;;;;;;25.60;17.60;;;17.80;99.90;;;;;;5018828;28;20776;-50
2021/08/22 06:23:23;;;;;;;26.93;18.03;;;17.80;99.90;;;;;;5019795;28;20282;-50
2021/08/22 06:25:50;;;;;;;28.63;17.07;;;17.80;99.90;;;;;;5017411;28;21522;-49
2021/08/22 06:28:17;;;;;;;30.50;19.20;;;17.80;99.90;;;;;;5018526;28;20209;-50
2021/08/22 06:30:43;;;;;;;28.13;17.87;;;17.80;99.90;;;;;;5024674;28;20326;-50
2021/08/22 06:33:11;;;;;;;32.50;20.53;;;17.90;99.90;;;;;;5003651;28;20814;-50
2021/08/22 06:35:38;;;;;;;30.07;19.97;;;17.90;99.90;;;;;;5016417;28;20645;-50
2021/08/22 06:38:05;;;;;;;29.57;19.73;;;18.00;99.90;;;;;;5020411;28;20303;-49
2021/08/22 06:40:31;;;;;;;34.57;20.83;;;18.00;99.90;;;;;;5020167;28;20618;-51
2021/08/22 06:42:58;;;;;;;29.90;19.47;;;17.90;99.90;;;;;;5011448;28;20288;-50
2021/08/22 06:45:25;;;;;;;33.77;20.27;;;17.90;99.90;;;;;;5021615;28;20672;-51
2021/08/22 06:47:53;;;;;;;26.93;19.30;;;17.90;99.90;;;;;;5021012;28;20901;-51
2021/08/22 06:50:24;;;;;;;25.87;17.60;;;17.90;99.90;;;;;;5020318;28;20215;-51
2021/08/22 06:52:52;;;;;;;28.17;17.60;;;17.90;99.90;;;;;;5020306;28;20271;-51
2021/08/22 06:55:20;;;;;;;26.93;17.90;;;18.00;99.90;;;;;;5018079;28;20227;-50
2021/08/22 06:57:47;;;;;;;27.50;17.60;;;18.10;99.90;;;;;;5022954;28;20606;-50
2021/08/22 07:00:15;;;;;;;27.10;18.00;;;18.00;99.90;;;;;;5021610;28;20969;-50
2021/08/22 07:02:43;;;;;;;22.40;15.90;;;18.00;99.90;;;;;;5021054;28;20204;-50
2021/08/22 07:05:12;;;;;;;26.63;16.43;;;18.00;99.90;;;;;;5017211;28;20381;-51
2021/08/22 07:07:39;;;;;;;25.43;16.33;;;18.20;99.90;;;;;;5023553;28;20508;-51
2021/08/22 07:10:07;;;;;;;24.67;16.07;;;18.20;99.90;;;;;;5021146;28;20286;-50
2021/08/22 07:12:34;;;;;;;23.63;15.40;;;18.40;99.90;;;;;;5017219;28;20360;-50
2021/08/22 07:15:02;;;;;;;23.30;14.83;;;18.50;99.90;;;;;;5017285;28;20202;-50
2021/08/22 07:17:29;;;;;;;23.50;15.17;;;18.50;99.90;;;;;;4994519;28;20203;-50
2021/08/22 07:19:55;;;;;;;22.80;14.30;;;18.50;99.90;;;;;;5016792;28;20633;-51
2021/08/22 07:22:22;;;;;;;27.73;15.10;;;18.50;99.90;;;;;;5024159;28;20286;-51
2021/08/22 07:24:49;;;;;;;21.10;15.50;;;18.60;99.90;;;;;;5013746;28;20292;-51
2021/08/22 07:27:16;;;;;;;16.07;13.40;;;18.70;99.90;;;;;;5016480;28;20298;-51
2021/08/22 07:29:43;;;;;;;23.07;15.13;;;18.90;99.90;;;;;;5024566;28;20271;-50
2021/08/22 07:32:11;;;;;;;20.90;14.57;;;18.80;99.90;;;;;;5009172;28;20675;-50
2021/08/22 07:34:39;;;;;;;23.33;14.97;;;18.90;99.90;;;;;;5019349;28;20890;-51
2021/08/22 07:37:06;;;;;;;24.80;15.60;;;18.90;99.90;;;;;;5015098;28;20222;-51
2021/08/22 07:39:33;;;;;;;24.50;16.73;;;18.80;99.90;;;;;;5012768;28;20282;-50
2021/08/22 07:42:00;;;;;;;27.37;17.03;;;18.90;99.90;;;;;;5027722;28;20229;-50
2021/08/22 07:44:27;;;;;;;23.20;15.87;;;18.90;99.90;;;;;;5023961;28;20207;-50
2021/08/22 07:46:54;;;;;;;22.50;16.93;;;18.90;99.90;;;;;;5019237;28;20645;-50
2021/08/22 07:49:20;;;;;;;21.10;15.77;;;18.90;99.90;;;;;;5016310;28;20221;-50
2021/08/22 07:51:47;;;;;;;21.13;15.23;;;19.00;99.90;;;;;;5017144;28;20559;-50
2021/08/22 07:54:14;;;;;;;24.07;16.63;;;18.90;99.90;;;;;;5016783;28;20593;-51
2021/08/22 07:56:42;;;;;;;20.53;15.30;;;18.90;99.90;;;;;;5018544;28;20220;-50
2021/08/22 07:59:09;;;;;;;21.70;15.33;;;18.90;99.90;;;;;;5027270;28;20304;-51
2021/08/22 08:01:36;;;;;;;20.87;14.93;;;19.00;99.90;;;;;;5017269;28;20653;-50
2021/08/22 08:04:04;;;;;;;21.03;16.10;;;18.90;99.90;;;;;;5014946;28;20287;-50
2021/08/22 08:06:31;;;;;;;18.50;14.93;;;19.00;99.90;;;;;;5020454;28;20603;-50
2021/08/22 08:08:58;;;;;;;20.90;15.83;;;18.90;99.90;;;;;;5015075;28;20630;-50
2021/08/22 08:11:25;;;;;;;18.40;13.93;;;18.80;99.90;;;;;;5016412;28;20207;-51
2021/08/22 08:13:52;;;;;;;19.60;14.60;;;18.90;99.90;;;;;;5014457;28;20419;-50
2021/08/22 08:16:19;;;;;;;20.57;14.53;;;18.80;99.90;;;;;;5017655;28;20310;-50
2021/08/22 08:18:46;;;;;;;17.77;12.73;;;18.80;99.90;;;;;;5014543;28;20621;-50
2021/08/22 08:21:13;;;;;;;17.40;13.57;;;19.00;99.90;;;;;;5015219;28;20277;-50
2021/08/22 08:23:39;;;;;;;15.43;12.53;;;19.00;99.90;;;;;;5015263;28;20345;-50
2021/08/22 08:26:06;;;;;;;15.97;11.53;;;18.90;99.90;;;;;;5017530;28;20406;-50
2021/08/22 08:28:33;;;;;;;15.90;10.63;;;18.90;99.90;;;;;;5019025;28;20291;-50
2021/08/22 08:31:00;;;;;;;14.63;10.63;;;19.10;99.90;;;;;;5014540;28;20648;-51
2021/08/22 08:33:27;;;;;;;12.40;8.60;;;19.00;99.90;;;;;;5017523;28;20206;-51
2021/08/22 08:35:54;;;;;;;10.73;8.67;;;19.00;99.90;;;;;;5016177;28;20596;-50
2021/08/22 08:38:21;;;;;;;13.13;8.00;;;18.80;99.90;;;;;;5014874;28;20864;-50
2021/08/22 08:40:47;;;;;;;8.77;6.63;;;18.70;99.90;;;;;;5016446;28;20949;-51
2021/08/22 08:43:17;;;;;;;9.33;6.67;;;18.70;99.90;;;;;;5016873;28;20305;-50
2021/08/22 08:46:00;;;;;;;8.03;6.03;;;18.50;99.90;;;;;;5014713;28;20219;-51
2021/08/22 08:48:47;;;;;;;8.43;6.07;;;18.50;99.90;;;;;;5016391;28;20294;-51
2021/08/22 08:51:20;;;;;;;7.17;5.80;;;18.40;99.90;;;;;;5015354;28;20834;-50
2021/08/22 08:53:57;;;;;;;8.23;5.83;;;18.40;99.90;;;;;;5019737;28;20316;-51
2021/08/22 08:56:30;;;;;;;8.60;6.10;;;18.50;99.90;;;;;;5017961;28;20310;-50
2021/08/22 08:58:59;;;;;;;7.17;5.40;;;18.50;99.90;;;;;;5017639;28;20278;-50
2021/08/22 09:01:25;;;;;;;6.90;5.33;;;18.60;99.90;;;;;;5018340;28;20203;-49
2021/08/22 09:04:26;;;;;;;8.70;6.63;;;18.60;99.90;;;;;;5020240;28;20294;-50
2021/08/22 09:07:12;;;;;;;8.03;6.40;;;18.40;99.90;;;;;;5025767;28;20245;-50
2021/08/22 09:10:13;;;;;;;10.83;8.20;;;18.50;99.90;;;;;;5027091;28;20274;-51
2021/08/22 09:13:17;;;;;;;12.00;8.63;;;18.50;99.90;;;;;;5027892;28;20557;-51
2021/08/22 09:16:06;;;;;;;11.80;9.20;;;18.50;99.90;;;;;;5026808;28;20203;-51
2021/08/22 09:18:57;;;;;;;13.03;10.07;;;18.60;99.90;;;;;;5027524;28;20273;-51
2021/08/22 09:21:42;;;;;;;15.70;9.57;;;18.50;99.90;;;;;;5028833;28;20242;-50
2021/08/22 09:24:18;;;;;;;13.80;10.70;;;18.50;99.90;;;;;;5014970;28;20310;-51
2021/08/22 09:27:42;;;;;;;14.17;10.87;;;18.60;99.90;;;;;;5026673;28;20258;-51
2021/08/22 09:30:57;;;;;;;14.97;11.17;;;18.60;99.90;;;;;;4905525;29;20283;-50
2021/08/22 09:34:06;;;;;;;15.00;11.37;;;18.60;99.90;;;;;;4958199;28;20308;-50
2021/08/22 09:37:07;;;;;;;13.83;11.33;;;18.80;99.90;;;;;;5021597;28;20256;-51
2021/08/22 09:40:11;;;;;;;13.50;10.53;;;18.80;99.90;;;;;;5029529;28;20286;-50
2021/08/22 09:43:05;;;;;;;13.50;11.03;;;18.80;99.90;;;;;;5029267;28;20317;-50
2021/08/22 09:46:00;;;;;;;15.43;11.37;;;18.90;99.90;;;;;;5028474;28;20620;-50
2021/08/22 09:48:58;;;;;;;14.10;11.70;;;18.90;99.90;;;;;;5033647;28;20277;-51
2021/08/22 09:51:52;;;;;;;12.53;10.30;;;19.10;99.90;;;;;;5027574;28;20231;-51
2021/08/22 09:54:57;;;;;;;14.37;11.00;;;19.10;99.90;;;;;;5018805;28;20859;-51
2021/08/22 09:57:46;;;;;;;13.17;10.60;;;19.00;99.90;;;;;;5012582;28;20574;-51
2021/08/22 10:00:37;;;;;;;14.80;11.17;;;19.10;99.90;;;;;;5025079;28;20221;-50
2021/08/22 10:03:36;;;;;;;14.43;10.83;;;19.20;99.90;;;;;;5030629;28;20211;-50
2021/08/22 10:06:22;;;;;;;14.37;11.50;;;19.20;99.90;;;;;;5028182;28;21160;-50
2021/08/22 10:08:54;;;;;;;14.17;10.43;;;19.30;99.90;;;;;;5028526;28;20274;-51
2021/08/22 10:11:37;;;;;;;15.10;10.90;;;19.20;99.90;;;;;;5029685;28;20216;-51
2021/08/22 10:14:08;;;;;;;14.23;10.43;;;19.30;99.90;;;;;;5027422;28;20346;-52
2021/08/22 10:16:37;;;;;;;12.80;10.23;;;19.20;99.90;;;;;;5027264;28;20499;-50
2021/08/22 10:19:05;;;;;;;13.27;10.40;;;19.20;99.90;;;;;;5025906;28;20203;-52
2021/08/22 10:21:32;;;;;;;14.43;10.33;;;19.30;99.90;;;;;;5028105;28;20251;-52
2021/08/22 10:24:36;;;;;;;13.50;10.40;;;19.70;99.90;;;;;;5030913;28;20200;-49
2021/08/22 10:27:11;;;;;;;16.50;10.03;;;19.70;99.90;;;;;;4945257;28;20678;-49
2021/08/22 10:29:47;;;;;;;13.03;9.13;;;19.80;99.90;;;;;;5021603;28;20242;-50
2021/08/22 10:32:14;;;;;;;14.03;9.87;;;19.80;99.90;;;;;;5032037;28;20314;-50
2021/08/22 10:34:43;;;;;;;11.93;9.47;;;20.10;99.90;;;;;;5031920;28;20686;-51
2021/08/22 10:37:24;;;;;;;14.03;9.20;;;20.30;99.90;;;;;;5033059;28;20331;-51
2021/08/22 10:39:51;;;;;;;11.13;8.90;;;20.10;99.90;;;;;;5030684;28;20208;-51
2021/08/22 10:42:19;;;;;;;13.23;9.07;;;20.20;99.90;;;;;;5031029;28;21010;-50
2021/08/22 10:44:46;;;;;;;16.00;9.90;;;20.10;99.90;;;;;;5030119;28;20238;-50
2021/08/22 10:47:34;;;;;;;13.47;9.83;;;20.30;99.90;;;;;;5031630;28;20714;-50
2021/08/22 10:50:01;;;;;;;16.87;9.27;;;20.10;99.90;;;;;;5032278;28;20215;-50
2021/08/22 10:52:33;;;;;;;12.37;9.03;;;20.10;99.90;;;;;;5029256;28;20366;-50
2021/08/22 10:55:12;;;;;;;15.73;9.07;;;20.00;99.90;;;;;;5009587;28;20212;-50
2021/08/22 10:57:42;;;;;;;12.20;9.27;;;20.00;99.90;;;;;;5013752;28;20263;-50
2021/08/22 11:00:22;;;;;;;10.80;9.43;;;19.80;99.90;;;;;;5013511;28;20261;-50
2021/08/22 11:02:54;;;;;;;13.73;9.37;;;20.00;99.90;;;;;;5011587;28;20544;-51
2021/08/22 11:05:35;;;;;;;11.07;8.73;;;20.20;99.90;;;;;;5010638;28;20509;-50
2021/08/22 11:08:18;;;;;;;12.37;8.97;;;20.30;99.90;;;;;;5010505;28;20226;-50
2021/08/22 11:10:57;;;;;;;11.47;8.23;;;20.40;99.90;;;;;;5012519;28;20855;-50
2021/08/22 11:13:25;;;;;;;11.53;8.70;;;20.80;99.90;;;;;;5014876;28;20208;-52
2021/08/22 11:15:52;;;;;;;15.37;9.20;;;21.20;99.90;;;;;;5012435;28;20517;-50
2021/08/22 11:18:19;;;;;;;12.17;8.97;;;20.80;99.90;;;;;;5010319;28;20315;-52
2021/08/22 11:20:46;;;;;;;11.80;8.77;;;20.90;99.90;;;;;;5014644;28;20278;-50
2021/08/22 11:23:17;;;;;;;9.27;8.17;;;21.20;99.90;;;;;;5008523;28;20295;-51
2021/08/22 11:26:10;;;;;;;9.70;8.23;;;21.20;99.90;;;;;;5010027;28;20241;-51
2021/08/22 11:28:37;;;;;;;11.10;8.20;;;21.20;99.90;;;;;;5010583;28;20646;-49
2021/08/22 11:31:13;;;;;;;12.27;9.00;;;21.10;99.90;;;;;;5012461;28;20724;-50
2021/08/22 11:33:41;;;;;;;11.83;8.50;;;20.90;99.90;;;;;;5013006;28;20226;-49
2021/08/22 11:36:07;;;;;;;10.63;8.77;;;20.70;99.90;;;;;;5012886;28;20692;-50
2021/08/22 11:38:34;;;;;;;14.93;9.13;;;20.60;99.90;;;;;;5013986;28;20274;-50
2021/08/22 11:41:03;;;;;;;11.37;8.00;;;20.60;99.90;;;;;;5013904;28;20224;-50
2021/08/22 11:43:34;;;;;;;11.97;9.40;;;20.70;99.90;;;;;;5014724;28;20280;-50
2021/08/22 11:46:01;;;;;;;13.67;8.53;;;20.60;99.90;;;;;;5013774;28;20296;-50
2021/08/22 11:48:28;;;;;;;14.63;9.70;;;20.50;99.90;;;;;;5014467;28;20635;-51
2021/08/22 11:51:02;;;;;;;12.90;9.60;;;20.60;99.90;;;;;;5013489;28;20933;-50
2021/08/22 11:53:30;;;;;;;11.23;8.80;;;21.00;99.90;;;;;;5022208;28;20263;-51
2021/08/22 11:55:57;;;;;;;9.87;7.90;;;21.50;99.90;;;;;;5032417;28;20230;-50
2021/08/22 11:58:24;;;;;;;8.47;7.13;;;21.40;99.90;;;;;;5034185;28;20247;-51
2021/08/22 12:00:55;;;;;;;13.33;7.27;;;21.60;99.90;;;;;;5011590;28;20219;-50
2021/08/22 12:03:24;;;;;;;7.03;6.17;;;21.60;99.90;;;;;;5030325;28;20246;-50
2021/08/22 12:05:53;;;;;;;10.17;6.00;;;21.40;99.90;;;;;;5034291;28;20362;-51
2021/08/22 12:08:20;;;;;;;9.53;6.53;;;21.40;99.90;;;;;;5030575;28;20240;-50
2021/08/22 12:10:47;;;;;;;7.57;5.93;;;21.40;99.90;;;;;;5032352;28;20228;-51
2021/08/22 12:13:21;;;;;;;9.00;6.47;;;21.40;99.90;;;;;;5035976;28;20246;-50
2021/08/22 12:15:51;;;;;;;10.67;6.03;;;21.50;99.90;;;;;;5036514;28;20208;-51
2021/08/22 12:18:20;;;;;;;5.73;4.53;;;22.00;99.90;;;;;;5032913;28;20217;-50
2021/08/22 12:21:06;;;;;;;6.20;3.77;;;22.40;1.00;;;;;;5030772;28;20223;-50
2021/08/22 12:23:36;;;;;;;6.70;3.70;;;22.30;1.00;;;;;;5031805;28;20556;-51
2021/08/22 12:26:21;;;;;;;6.43;4.27;;;21.90;1.00;;;;;;5032367;28;20281;-51
2021/08/22 12:28:57;;;;;;;5.10;3.17;;;21.60;99.90;;;;;;5035729;28;20212;-51
2021/08/22 12:31:35;;;;;;;3.53;2.80;;;21.90;65.10;;;;;;5036296;28;20310;-50
2021/08/22 12:34:09;;;;;;;3.67;2.50;;;22.10;1.00;;;;;;5031872;28;20570;-50
2021/08/22 12:36:42;;;;;;;3.27;2.70;;;22.50;1.00;;;;;;5033082;28;20194;-51
2021/08/22 12:39:11;;;;;;;4.10;3.20;;;22.70;1.00;;;;;;5033753;28;20311;-50
2021/08/22 12:41:47;;;;;;;4.83;3.43;;;22.50;1.00;;;;;;5030253;28;20286;-50
2021/08/22 12:44:25;;;;;;;4.57;3.23;;;22.80;1.00;;;;;;5031342;28;20831;-50
2021/08/22 12:47:00;;;;;;;3.60;2.70;;;22.70;99.90;;;;;;5019332;28;20331;-50
2021/08/22 12:49:28;;;;;;;3.80;3.10;;;22.80;1.00;;;;;;5017300;28;20675;-50
2021/08/22 12:52:03;;;;;;;4.47;3.47;;;22.40;1.00;;;;;;5033278;28;20239;-50
2021/08/22 12:54:32;;;;;;;7.10;3.73;;;22.60;1.00;;;;;;5013320;28;20608;-50